KCTJ

West Georgia Regional - O V Gray Field Airport

Carrollton, Georgia, USA
METAR KCTJ 200715Z AUTO 00000KT 10SM BKN034 BKN065 15/14 A3036 RMK AO2 T01450140
Observed Flight Rules
Feb-20 @ 07:15 UTC (22 minutes ago) Visual Flight Rules
Wind Visibility Clouds
Calm 10 miles
  • Broken at 3,400' AGL
  • Broken at 6,500' AGL
Temperatures Readings
Current 15°C / 59°F
Dewpoint 14°C / 57°F
Humidity 94%
Altimeter 30.36" Hg
Pressure 1028 hPa
Elevation 354
METAR KCTJ 200715Z AUTO 00000KT 10SM BKN034 BKN065 15/14 A3036 RMK AO2 T01450140
Observed Flight Rules
Feb-20 @ 07:15 UTC
(22 minutes ago)
VFR
Wind Visibility
Calm 10 miles
Clouds
  • Broken at 3,400' AGL
  • Broken at 6,500' AGL
Temperature Dewpoint
15°C / 59°F 14°C / 57°F
Humidity Altimeter Pressure
94% 30.36" Hg 1028 hPa